createdAt,value
2019-04-07T00:01:53.846Z,17.87
2019-04-07T00:06:58.840Z,16.10
2019-04-07T00:12:03.428Z,17.93
2019-04-07T00:17:08.281Z,16.73
2019-04-07T00:22:13.358Z,16.97
2019-04-07T00:27:17.928Z,15.47
2019-04-07T00:32:22.422Z,14.70
2019-04-07T00:37:27.336Z,14.70
2019-04-07T00:42:31.834Z,15.43
2019-04-07T00:47:37.228Z,16.20
2019-04-07T00:52:41.725Z,15.32
2019-04-07T00:57:46.154Z,17.57
2019-04-07T01:02:50.652Z,16.90
2019-04-07T01:07:56.425Z,18.13
2019-04-07T01:13:01.069Z,16.47
2019-04-07T01:18:05.599Z,16.03
2019-04-07T01:23:10.624Z,17.20
2019-04-07T01:28:15.001Z,17.03
2019-04-07T01:33:19.425Z,16.33
2019-04-07T01:38:23.871Z,17.90
2019-04-07T01:43:32.742Z,19.97
2019-04-07T01:48:38.846Z,19.27
2019-04-07T01:53:51.862Z,24.97
2019-04-07T01:59:04.006Z,19.27
2019-04-07T02:04:10.197Z,19.13
2019-04-07T02:09:17.326Z,18.77
2019-04-07T02:14:41.989Z,15.80
2019-04-07T02:20:06.763Z,13.37
2019-04-07T02:25:16.113Z,18.47
2019-04-07T02:30:31.091Z,15.57
2019-04-07T02:35:56.058Z,15.70
2019-04-07T02:41:10.315Z,15.60
2019-04-07T02:46:22.554Z,16.27
2019-04-07T02:51:38.849Z,17.30
2019-04-07T02:56:48.512Z,17.43
2019-04-07T03:01:55.315Z,15.67
2019-04-07T03:07:04.809Z,16.47
2019-04-07T03:12:17.794Z,17.50
2019-04-07T03:17:24.033Z,16.13
2019-04-07T03:22:47.109Z,15.30
2019-04-07T03:27:55.902Z,14.00
2019-04-07T03:33:05.172Z,14.67
2019-04-07T03:38:27.300Z,15.03
2019-04-07T03:43:37.890Z,15.27
2019-04-07T03:48:53.691Z,15.57
2019-04-07T03:54:00.604Z,16.60
2019-04-07T03:59:16.490Z,15.33
2019-04-07T04:04:25.408Z,15.60
2019-04-07T04:09:48.077Z,15.60
2019-04-07T04:15:03.643Z,15.80
2019-04-07T04:20:08.492Z,15.07
2019-04-07T04:25:15.535Z,14.33
2019-04-07T04:30:21.098Z,14.38
2019-04-07T04:35:26.619Z,15.60
2019-04-07T04:40:32.299Z,14.50
2019-04-07T04:45:36.861Z,14.70
2019-04-07T04:50:42.025Z,13.37
2019-04-07T04:55:47.179Z,14.37
2019-04-07T05:00:52.380Z,14.73
2019-04-07T05:05:57.566Z,16.80
2019-04-07T05:11:02.294Z,19.53
2019-04-07T05:16:07.133Z,21.30
2019-04-07T05:21:11.861Z,23.77
2019-04-07T05:26:16.312Z,24.90
2019-04-07T05:31:21.063Z,24.87
2019-04-07T05:36:26.885Z,26.40
2019-04-07T05:41:32.645Z,26.47
2019-04-07T05:46:40.102Z,25.70
2019-04-07T05:51:44.629Z,24.63
2019-04-07T05:56:49.303Z,27.87
2019-04-07T06:01:59.339Z,25.30
2019-04-07T06:07:00.914Z,27.77
2019-04-07T06:12:07.984Z,26.73
2019-04-07T06:17:12.051Z,26.87
2019-04-07T06:22:19.371Z,25.07
2019-04-07T06:27:22.889Z,23.43
2019-04-07T06:32:27.507Z,23.53
2019-04-07T06:37:32.188Z,21.57
2019-04-07T06:42:37.545Z,22.53
2019-04-07T06:47:43.757Z,23.83
2019-04-07T06:52:56.602Z,22.13
2019-04-07T06:58:06.068Z,22.37
2019-04-07T07:03:18.218Z,24.07
2019-04-07T07:08:26.869Z,24.37
2019-04-07T07:13:36.374Z,23.13
2019-04-07T07:19:02.052Z,21.93
2019-04-07T07:24:07.133Z,23.33
2019-04-07T07:29:14.675Z,23.07
2019-04-07T07:34:18.708Z,22.57
2019-04-07T07:39:23.420Z,24.97
2019-04-07T07:44:28.870Z,25.72
2019-04-07T07:49:36.085Z,24.23
2019-04-07T07:54:40.160Z,24.77
2019-04-07T07:59:44.772Z,25.20
2019-04-07T08:04:49.948Z,23.90
2019-04-07T08:09:56.020Z,23.83
2019-04-07T08:15:00.810Z,22.65
2019-04-07T08:20:07.856Z,23.77
2019-04-07T08:25:12.607Z,23.00
2019-04-07T08:30:18.489Z,23.53
2019-04-07T08:35:23.306Z,24.23
2019-04-07T08:40:28.544Z,23.07
2019-04-07T08:45:33.857Z,21.83
2019-04-07T08:50:38.311Z,22.10
2019-04-07T08:55:42.947Z,20.63
2019-04-07T09:00:51.632Z,21.03
2019-04-07T09:05:57.441Z,19.50
2019-04-07T09:11:13.141Z,17.10
2019-04-07T09:16:34.824Z,17.63
2019-04-07T09:21:59.351Z,15.97
2019-04-07T09:27:09.058Z,17.77
2019-04-07T09:32:21.486Z,19.17
2019-04-07T09:37:37.788Z,18.83
2019-04-07T09:42:46.005Z,18.73
2019-04-07T09:47:52.315Z,19.10
2019-04-07T09:53:01.447Z,18.60
2019-04-07T09:58:14.903Z,17.87
2019-04-07T10:03:21.071Z,17.83
2019-04-07T10:08:39.308Z,18.80
2019-04-07T10:13:49.558Z,19.50
2019-04-07T10:18:56.527Z,18.40
2019-04-07T10:24:02.882Z,18.80
2019-04-07T10:29:23.957Z,19.53
2019-04-07T10:34:33.150Z,19.50
2019-04-07T10:39:39.891Z,19.07
2019-04-07T10:44:52.154Z,18.33
2019-04-07T10:50:06.173Z,17.87
2019-04-07T10:55:11.837Z,17.10
2019-04-07T11:00:35.138Z,17.17
2019-04-07T11:05:53.790Z,17.97
2019-04-07T11:11:12.202Z,16.50
2019-04-07T11:16:22.499Z,15.53
2019-04-07T11:21:33.840Z,15.83
2019-04-07T11:26:55.903Z,15.53
2019-04-07T11:32:17.930Z,15.77
2019-04-07T11:37:27.509Z,15.40
2019-04-07T11:42:37.037Z,16.03
2019-04-07T11:47:46.045Z,15.20
2019-04-07T11:52:52.695Z,14.93
2019-04-07T11:58:10.889Z,14.80
2019-04-07T12:03:13.245Z,14.60
2019-04-07T12:08:37.685Z,13.53
2019-04-07T12:13:56.339Z,13.07
2019-04-07T12:19:15.034Z,15.17
2019-04-07T12:24:33.663Z,14.40
2019-04-07T12:29:56.854Z,15.10
2019-04-07T12:35:09.182Z,14.67
2019-04-07T12:40:18.288Z,18.27
2019-04-07T12:45:39.853Z,16.17
2019-04-07T12:50:49.044Z,14.83
2019-04-07T12:56:03.238Z,15.93
2019-04-07T13:01:16.307Z,15.60
2019-04-07T13:06:24.154Z,14.47
2019-04-07T13:11:49.714Z,14.50
2019-04-07T13:17:00.134Z,14.63
2019-04-07T13:22:13.165Z,13.62
2019-04-07T13:27:22.163Z,14.60
2019-04-07T13:32:42.177Z,16.12
2019-04-07T13:37:44.933Z,15.45
2019-04-07T13:43:06.831Z,15.15
2019-04-07T13:48:28.957Z,15.10
2019-04-07T13:53:37.937Z,14.97
2019-04-07T13:58:44.287Z,15.70
2019-04-07T14:03:56.539Z,14.58
2019-04-07T14:09:02.571Z,15.40
2019-04-07T14:14:13.091Z,14.47
2019-04-07T14:19:29.166Z,15.07
2019-04-07T14:24:38.302Z,15.10
2019-04-07T14:29:44.929Z,13.90
2019-04-07T14:34:56.573Z,14.03
2019-04-07T14:40:15.177Z,15.17
2019-04-07T14:45:25.129Z,14.90
2019-04-07T14:50:34.969Z,13.97
2019-04-07T14:55:49.613Z,14.07
2019-04-07T15:01:08.043Z,14.37
2019-04-07T15:06:12.605Z,14.20
2019-04-07T15:11:19.550Z,14.03
2019-04-07T15:16:24.268Z,13.87
2019-04-07T15:21:29.798Z,13.77
2019-04-07T15:26:34.783Z,14.20
2019-04-07T15:31:39.540Z,14.40
2019-04-07T15:36:44.288Z,14.53
2019-04-07T15:41:49.566Z,13.97
2019-04-07T15:46:54.577Z,14.78
2019-04-07T15:51:59.371Z,14.65
2019-04-07T15:57:05.709Z,14.98
2019-04-07T16:02:11.311Z,13.60
2019-04-07T16:07:18.694Z,14.03
2019-04-07T16:12:23.009Z,14.13
2019-04-07T16:17:27.702Z,14.13
2019-04-07T16:22:32.286Z,14.03
2019-04-07T16:27:39.678Z,14.70
2019-04-07T16:32:44.974Z,15.07
2019-04-07T16:37:49.552Z,15.07
2019-04-07T16:43:09.178Z,14.30
2019-04-07T16:48:04.496Z,14.87
2019-04-07T16:53:08.852Z,17.97
2019-04-07T16:58:14.486Z,16.77
2019-04-07T17:03:19.144Z,17.65
2019-04-07T17:08:24.725Z,16.40
2019-04-07T17:13:39.481Z,15.97
2019-04-07T17:18:39.361Z,17.30
2019-04-07T17:23:45.526Z,17.87
2019-04-07T17:28:50.360Z,18.60
2019-04-07T17:33:55.610Z,16.80
2019-04-07T17:39:14.420Z,15.90
2019-04-07T17:44:26.659Z,17.73
2019-04-07T17:49:41.536Z,18.90
2019-04-07T17:54:52.494Z,22.33
2019-04-07T18:00:04.691Z,30.90
2019-04-07T18:05:22.031Z,30.97
2019-04-07T18:10:26.647Z,26.77
2019-04-07T18:15:38.041Z,25.27
2019-04-07T18:20:54.054Z,24.73
2019-04-07T18:26:04.244Z,23.13
2019-04-07T18:31:11.790Z,21.03
2019-04-07T18:36:20.811Z,23.33
2019-04-07T18:41:40.382Z,25.17
2019-04-07T18:46:50.172Z,26.93
2019-04-07T18:52:01.793Z,27.57
2019-04-07T18:57:16.982Z,28.07
2019-04-07T19:02:30.039Z,29.77
2019-04-07T19:07:38.944Z,29.23
2019-04-07T19:13:01.947Z,30.43
2019-04-07T19:18:01.818Z,30.53
2019-04-07T19:23:26.295Z,34.45
2019-04-07T19:28:35.704Z,26.20
2019-04-07T19:33:56.644Z,27.43
2019-04-07T19:39:21.417Z,28.53
2019-04-07T19:44:35.557Z,31.50
2019-04-07T19:49:34.724Z,32.80
2019-04-07T19:54:42.005Z,32.50
2019-04-07T19:59:52.696Z,27.97
2019-04-07T20:05:05.851Z,28.27
2019-04-07T20:10:16.401Z,29.87
2019-04-07T20:15:26.181Z,35.40
2019-04-07T20:20:43.503Z,37.03
2019-04-07T20:25:49.393Z,41.10
2019-04-07T20:30:56.825Z,39.67
2019-04-07T20:36:19.380Z,36.80
2019-04-07T20:41:22.699Z,66.37
2019-04-07T20:46:34.372Z,45.97
2019-04-07T20:51:58.464Z,35.17
2019-04-07T20:57:04.997Z,29.40
2019-04-07T21:02:27.579Z,27.17
2019-04-07T21:07:40.872Z,27.77
2019-04-07T21:12:56.872Z,28.00
2019-04-07T21:18:04.154Z,27.90
2019-04-07T21:23:16.161Z,29.70
2019-04-07T21:28:39.029Z,28.03
2019-04-07T21:33:57.824Z,28.53
2019-04-07T21:39:09.946Z,30.07
2019-04-07T21:44:32.626Z,30.97
2019-04-07T21:49:51.470Z,29.00
2019-04-07T21:55:08.092Z,28.77
2019-04-07T22:00:21.249Z,30.27
2019-04-07T22:05:41.525Z,34.57
2019-04-07T22:10:49.926Z,36.80
2019-04-07T22:15:57.927Z,38.00
2019-04-07T22:20:59.196Z,37.97
2019-04-07T22:26:04.591Z,34.40
2019-04-07T22:31:12.757Z,32.27
2019-04-07T22:36:17.179Z,33.67
2019-04-07T22:41:22.091Z,33.87
2019-04-07T22:46:28.957Z,34.93
2019-04-07T22:51:33.669Z,35.90
2019-04-07T22:56:40.888Z,37.07
2019-04-07T23:01:45.942Z,36.40
2019-04-07T23:06:52.143Z,37.33
2019-04-07T23:11:56.818Z,37.17
2019-04-07T23:17:01.676Z,38.10
2019-04-07T23:22:06.262Z,37.63
2019-04-07T23:27:10.947Z,35.60
2019-04-07T23:32:15.843Z,38.43
2019-04-07T23:37:20.516Z,38.03
2019-04-07T23:42:25.056Z,38.60
2019-04-07T23:47:29.479Z,38.13
2019-04-07T23:52:33.993Z,36.60
2019-04-07T23:57:38.415Z,35.87
